Time;durP1;ratioP1;P1;durP2;ratioP2;P2;SDS_P1;SDS_P2;PMS_P1;PMS_P2;Temp;Humidity;BMP_temperature;BMP_pressure;BME280_temperature;BME280_humidity;BME280_pressure;Samples;Min_cycle;Max_cycle;Signal;HPM_P1;HPM_P2
2022/02/24 00:02:19;;;;;;;0.40;0.30;;;;;;;3.38;89.70;101464.75;5013496;28;20543;-72
2022/02/24 00:04:46;;;;;;;0.40;0.30;;;;;;;3.45;89.82;101471.63;5013952;28;20447;-72
2022/02/24 00:07:12;;;;;;;0.40;0.30;;;;;;;3.40;89.25;101463.47;5013856;28;20514;-72
2022/02/24 00:09:38;;;;;;;0.50;0.50;;;;;;;3.43;89.23;101462.19;5013894;28;20571;-72
2022/02/24 00:12:05;;;;;;;0.40;0.30;;;;;;;3.48;89.57;101471.16;5013841;28;20443;-72
2022/02/24 00:14:32;;;;;;;0.40;0.30;;;;;;;3.51;89.89;101472.56;5013691;28;20464;-72
2022/02/24 00:16:59;;;;;;;0.40;0.30;;;;;;;3.48;89.04;101467.66;5013737;28;20435;-72
2022/02/24 00:19:27;;;;;;;0.40;0.30;;;;;;;3.47;88.63;101471.41;5013648;28;20484;-72
2022/02/24 00:21:53;;;;;;;0.40;0.20;;;;;;;3.44;88.13;101474.53;5013567;28;20448;-73
2022/02/24 00:24:19;;;;;;;0.40;0.30;;;;;;;3.36;88.22;101456.94;5013254;28;20847;-72
2022/02/24 00:26:46;;;;;;;0.40;0.30;;;;;;;3.35;88.59;101460.66;5013384;28;20807;-72
2022/02/24 00:29:13;;;;;;;0.40;0.30;;;;;;;3.37;89.18;101455.09;5013547;28;20471;-72
2022/02/24 00:31:39;;;;;;;0.70;0.70;;;;;;;3.31;90.53;101461.34;5013825;28;20448;-72
2022/02/24 00:34:06;;;;;;;0.40;0.30;;;;;;;3.36;90.61;101459.59;5013548;28;20464;-72
2022/02/24 00:36:33;;;;;;;0.40;0.30;;;;;;;3.38;91.07;101454.84;5013377;28;20448;-72
2022/02/24 00:39:00;;;;;;;0.40;0.30;;;;;;;3.40;91.09;101454.63;5013076;28;20448;-72
2022/02/24 00:41:26;;;;;;;0.40;0.30;;;;;;;3.39;91.35;101456.47;5013130;28;20456;-72
2022/02/24 00:43:53;;;;;;;0.40;0.30;;;;;;;3.40;91.08;101458.09;5013049;28;20464;-73
2022/02/24 00:46:19;;;;;;;0.40;0.30;;;;;;;3.38;91.16;101454.03;5013366;28;20447;-72
2022/02/24 00:48:46;;;;;;;0.73;0.73;;;;;;;3.41;91.02;101448.22;5012830;28;20439;-72
2022/02/24 00:51:12;;;;;;;0.40;0.30;;;;;;;3.44;91.10;101447.75;5013046;28;20494;-72
2022/02/24 00:53:41;;;;;;;0.40;0.30;;;;;;;3.35;90.93;101441.09;5012940;28;20464;-72
2022/02/24 00:56:08;;;;;;;0.40;0.30;;;;;;;3.32;90.15;101454.94;5012947;28;20946;-72
2022/02/24 00:58:34;;;;;;;0.40;0.30;;;;;;;3.29;90.20;101441.00;5013201;28;20440;-72
2022/02/24 01:01:01;;;;;;;0.40;0.30;;;;;;;3.22;90.10;101434.09;5012717;28;20495;-72
2022/02/24 01:03:27;;;;;;;0.40;0.30;;;;;;;3.14;89.69;101429.91;5012843;28;20464;-73
2022/02/24 01:05:54;;;;;;;0.40;0.30;;;;;;;3.12;89.62;101428.50;5012830;28;20451;-73
2022/02/24 01:08:20;;;;;;;0.40;0.30;;;;;;;3.14;90.10;101419.19;5013000;28;20444;-72
2022/02/24 01:10:48;;;;;;;0.40;0.30;;;;;;;3.14;89.45;101405.00;5012622;28;20524;-72
2022/02/24 01:13:14;;;;;;;0.40;0.20;;;;;;;3.15;89.69;101404.78;5012582;28;20475;-71
2022/02/24 01:15:42;;;;;;;0.40;0.30;;;;;;;3.12;89.35;101405.25;5012484;28;20444;-71
2022/02/24 01:18:09;;;;;;;0.40;0.30;;;;;;;3.08;88.89;101401.38;5012580;28;20447;-71
2022/02/24 01:20:36;;;;;;;0.40;0.30;;;;;;;3.07;89.21;101401.63;5013009;28;20487;-71
2022/02/24 01:23:03;;;;;;;0.40;0.30;;;;;;;3.05;89.40;101399.16;5012586;28;20456;-71
2022/02/24 01:25:29;;;;;;;0.40;0.30;;;;;;;3.09;89.74;101397.66;5012386;28;20451;-71
2022/02/24 01:27:57;;;;;;;0.40;0.30;;;;;;;2.99;89.26;101392.06;5012662;28;20444;-71
2022/02/24 01:30:24;;;;;;;0.40;0.30;;;;;;;2.97;89.08;101380.81;5012330;28;20432;-72
2022/02/24 01:32:50;;;;;;;0.40;0.30;;;;;;;3.04;89.70;101384.97;5012691;28;20460;-72
2022/02/24 01:35:16;;;;;;;0.40;0.30;;;;;;;3.03;90.19;101385.22;5012798;28;20456;-72
2022/02/24 01:37:44;;;;;;;0.40;0.30;;;;;;;2.99;89.61;101384.84;5012561;28;20451;-72
2022/02/24 01:40:12;;;;;;;0.40;0.30;;;;;;;3.02;90.33;101372.88;5015426;28;20487;-71
2022/02/24 01:42:39;;;;;;;0.40;0.30;;;;;;;3.04;90.93;101376.94;5016395;28;20474;-72
2022/02/24 01:45:09;;;;;;;0.40;0.30;;;;;;;3.04;90.83;101368.91;5016277;28;20964;-72
2022/02/24 01:47:36;;;;;;;0.40;0.30;;;;;;;2.96;91.82;101373.78;5016478;28;20448;-71
2022/02/24 01:50:03;;;;;;;0.40;0.30;;;;;;;3.00;92.33;101372.28;5016487;28;20466;-71
2022/02/24 01:52:30;;;;;;;2.30;2.20;;;;;;;3.01;92.07;101366.72;5016052;28;20468;-72
2022/02/24 01:54:56;;;;;;;0.40;0.30;;;;;;;3.07;91.71;101366.84;5016339;28;20440;-72
2022/02/24 01:57:23;;;;;;;0.40;0.30;;;;;;;3.10;92.02;101351.16;5016348;28;20444;-72
2022/02/24 01:59:49;;;;;;;0.40;0.40;;;;;;;3.09;92.00;101340.66;5016282;28;20542;-72
2022/02/24 02:02:17;;;;;;;0.40;0.30;;;;;;;3.11;91.90;101347.41;5016211;28;20463;-72
2022/02/24 02:04:44;;;;;;;0.40;0.30;;;;;;;3.16;91.83;101339.50;5016046;28;20439;-72
2022/02/24 02:07:11;;;;;;;0.40;0.30;;;;;;;3.14;91.33;101332.72;5016194;28;20448;-72
2022/02/24 02:09:38;;;;;;;0.40;0.30;;;;;;;3.06;90.07;101331.25;5016128;28;20828;-71
2022/02/24 02:12:05;;;;;;;1.90;1.80;;;;;;;3.06;90.38;101323.22;5015769;28;20447;-72
2022/02/24 02:14:32;;;;;;;0.40;0.30;;;;;;;3.06;89.78;101323.22;5015979;28;20510;-72
2022/02/24 02:16:59;;;;;;;0.40;0.30;;;;;;;2.96;89.92;101322.94;5016317;28;20859;-72
2022/02/24 02:19:28;;;;;;;0.40;0.30;;;;;;;2.91;89.23;101304.13;5015725;28;20874;-72
2022/02/24 02:21:56;;;;;;;0.40;0.30;;;;;;;2.92;89.69;101308.41;5015771;28;20451;-72
2022/02/24 02:24:23;;;;;;;0.40;0.30;;;;;;;2.98;90.24;101294.13;5015812;28;20474;-72
2022/02/24 02:26:49;;;;;;;0.40;0.30;;;;;;;3.03;91.24;101291.56;5015556;28;20883;-72
2022/02/24 02:29:17;;;;;;;0.40;0.40;;;;;;;3.06;91.26;101295.63;5015760;28;20498;-72
2022/02/24 02:31:44;;;;;;;0.40;0.30;;;;;;;3.09;91.49;101290.59;5015754;28;20444;-72
2022/02/24 02:34:12;;;;;;;0.40;0.30;;;;;;;3.14;91.75;101293.41;5015910;28;20470;-73
2022/02/24 02:36:40;;;;;;;0.40;0.30;;;;;;;3.13;92.01;101289.09;5015594;28;20452;-74
2022/02/24 02:39:11;;;;;;;0.40;0.30;;;;;;;3.18;92.20;101283.84;5015601;28;20934;-73
2022/02/24 02:41:39;;;;;;;0.40;0.30;;;;;;;3.24;91.97;101277.56;5015632;28;20472;-73
2022/02/24 02:44:07;;;;;;;0.40;0.30;;;;;;;3.25;91.51;101268.50;5015628;28;20561;-73
2022/02/24 02:46:34;;;;;;;0.40;0.30;;;;;;;3.22;90.99;101274.31;5015422;28;20452;-74
2022/02/24 02:49:00;;;;;;;0.40;0.30;;;;;;;3.19;90.56;101269.44;5015455;28;21008;-73
2022/02/24 02:51:28;;;;;;;0.40;0.30;;;;;;;3.15;91.01;101262.13;5014342;28;20479;-73
2022/02/24 02:53:55;;;;;;;0.40;0.30;;;;;;;3.20;90.77;101256.88;5015115;28;20916;-73
2022/02/24 02:56:23;;;;;;;0.40;0.30;;;;;;;3.19;90.27;101248.03;5015659;28;20448;-73
2022/02/24 02:58:49;;;;;;;0.50;0.40;;;;;;;3.26;90.86;101237.19;5015345;28;20447;-73
2022/02/24 03:01:15;;;;;;;0.40;0.30;;;;;;;3.18;91.66;101245.56;5015207;28;20488;-72
2022/02/24 03:03:42;;;;;;;0.40;0.30;;;;;;;3.15;91.58;101244.19;5015267;28;20653;-72
2022/02/24 03:06:08;;;;;;;8.20;7.80;;;;;;;3.19;91.09;101240.00;5015252;28;20444;-72
2022/02/24 03:08:36;;;;;;;0.40;0.30;;;;;;;3.24;91.24;101237.41;5015104;28;20483;-72
2022/02/24 03:11:02;;;;;;;0.40;0.30;;;;;;;3.31;90.95;101229.25;5014881;28;21008;-72
2022/02/24 03:13:30;;;;;;;0.40;0.30;;;;;;;3.32;90.27;101219.34;5015167;28;20886;-72
2022/02/24 03:15:57;;;;;;;0.40;0.30;;;;;;;3.33;90.77;101216.44;5014986;28;20436;-72
2022/02/24 03:18:23;;;;;;;0.40;0.30;;;;;;;3.35;90.66;101214.34;5015080;28;20447;-72
2022/02/24 03:20:50;;;;;;;0.40;0.30;;;;;;;3.34;91.38;101202.00;5015060;28;20538;-70
2022/02/24 03:23:16;;;;;;;0.40;0.30;;;;;;;3.39;91.09;101206.66;5015072;28;20464;-68
2022/02/24 03:25:43;;;;;;;0.40;0.30;;;;;;;3.41;91.46;101201.84;5014720;28;20962;-74
2022/02/24 03:28:09;;;;;;;0.40;0.30;;;;;;;3.40;91.85;101202.91;5015003;28;20471;-75
2022/02/24 03:30:39;;;;;;;0.40;0.20;;;;;;;3.46;90.94;101210.00;5014991;28;20459;-75
2022/02/24 03:33:06;;;;;;;0.40;0.30;;;;;;;3.48;90.84;101198.00;5014887;28;21000;-74
2022/02/24 03:35:32;;;;;;;0.40;0.30;;;;;;;3.52;90.80;101192.97;5014819;28;20440;-71
2022/02/24 03:37:59;;;;;;;0.40;0.30;;;;;;;3.52;91.65;101192.97;5014743;28;20475;-71
2022/02/24 03:40:26;;;;;;;0.40;0.30;;;;;;;3.51;91.86;101191.38;5014537;28;20570;-69
2022/02/24 03:42:53;;;;;;;0.40;0.30;;;;;;;3.49;91.31;101193.44;5014435;28;20456;-70
2022/02/24 03:45:20;;;;;;;0.40;0.30;;;;;;;3.49;91.46;101183.56;5014616;28;20444;-71
2022/02/24 03:47:48;;;;;;;0.40;0.30;;;;;;;3.45;90.80;101184.25;5014509;28;20435;-71
2022/02/24 03:50:15;;;;;;;0.40;0.30;;;;;;;3.42;90.65;101180.22;5014573;28;20444;-71
2022/02/24 03:52:42;;;;;;;0.40;0.30;;;;;;;3.43;90.71;101179.16;5014499;28;20567;-71
2022/02/24 03:55:10;;;;;;;0.40;0.30;;;;;;;3.44;90.13;101179.97;5014237;28;20444;-71
2022/02/24 03:57:36;;;;;;;0.40;0.30;;;;;;;3.45;90.57;101170.88;5014382;28;20487;-71
2022/02/24 04:00:04;;;;;;;0.40;0.30;;;;;;;3.47;90.33;101169.59;5014265;28;20440;-71
2022/02/24 04:02:31;;;;;;;0.40;0.30;;;;;;;3.48;89.90;101173.91;5013526;28;20475;-70
2022/02/24 04:05:00;;;;;;;0.40;0.30;;;;;;;3.48;90.30;101170.41;5014288;28;20452;-71
2022/02/24 04:07:27;;;;;;;0.40;0.30;;;;;;;3.38;89.12;101163.00;5013959;28;20444;-71
2022/02/24 04:09:53;;;;;;;0.40;0.30;;;;;;;3.44;89.91;101163.91;5014180;28;20451;-71
2022/02/24 04:12:20;;;;;;;0.40;0.30;;;;;;;3.49;90.37;101156.78;5014350;28;20444;-71
2022/02/24 04:14:47;;;;;;;0.40;0.30;;;;;;;3.47;90.05;101147.38;5014183;28;20456;-71
2022/02/24 04:17:14;;;;;;;0.40;0.30;;;;;;;3.42;89.98;101150.75;5013787;28;20871;-71
2022/02/24 04:19:40;;;;;;;0.40;0.30;;;;;;;3.43;89.87;101147.03;5013819;28;20942;-71
2022/02/24 04:22:08;;;;;;;0.40;0.30;;;;;;;3.51;89.92;101143.16;5014009;28;20842;-71
2022/02/24 04:24:34;;;;;;;2.40;2.30;;;;;;;3.56;90.21;101140.56;5013962;28;20444;-71
2022/02/24 04:27:01;;;;;;;0.40;0.30;;;;;;;3.58;90.49;101143.81;5013909;28;20444;-70
2022/02/24 04:29:27;;;;;;;0.40;0.30;;;;;;;3.59;90.98;101140.09;5014086;28;20852;-71
2022/02/24 04:31:54;;;;;;;0.40;0.30;;;;;;;3.60;91.08;101135.56;5013773;28;20435;-71
2022/02/24 04:34:20;;;;;;;0.40;0.30;;;;;;;3.63;90.66;101140.41;5013792;28;20468;-72
2022/02/24 04:36:46;;;;;;;0.40;0.30;;;;;;;3.67;89.29;101138.88;5013916;28;20455;-72
2022/02/24 04:39:14;;;;;;;0.40;0.27;;;;;;;3.64;89.93;101134.81;5013756;28;20458;-72
2022/02/24 04:41:41;;;;;;;0.40;0.30;;;;;;;3.66;89.64;101131.91;5013264;28;20870;-72
2022/02/24 04:44:07;;;;;;;0.40;0.30;;;;;;;3.63;89.84;101133.22;5013722;28;20522;-72
2022/02/24 04:46:34;;;;;;;0.40;0.30;;;;;;;3.66;90.11;101126.53;5013664;28;20459;-72
2022/02/24 04:49:00;;;;;;;0.40;0.20;;;;;;;3.72;89.89;101118.38;5013769;28;20444;-72
2022/02/24 04:51:27;;;;;;;0.40;0.20;;;;;;;3.68;89.28;101109.19;5013774;28;20571;-72
2022/02/24 04:53:53;;;;;;;0.40;0.30;;;;;;;3.66;88.25;101102.44;5013652;28;20464;-72
2022/02/24 04:56:21;;;;;;;0.40;0.30;;;;;;;3.59;87.74;101099.91;5013695;28;20452;-72
2022/02/24 04:58:47;;;;;;;0.40;0.30;;;;;;;3.62;88.12;101101.28;5013489;28;20448;-72
2022/02/24 05:01:14;;;;;;;0.40;0.30;;;;;;;3.63;87.99;101093.03;5013379;28;20488;-72
2022/02/24 05:03:40;;;;;;;0.40;0.30;;;;;;;3.69;88.60;101091.25;5013424;28;20474;-72
2022/02/24 05:06:07;;;;;;;0.40;0.30;;;;;;;3.70;87.38;101093.66;5013174;28;21032;-72
2022/02/24 05:08:33;;;;;;;0.40;0.30;;;;;;;3.64;86.66;101097.31;5013052;28;20945;-72
2022/02/24 05:10:59;;;;;;;0.40;0.30;;;;;;;3.62;87.04;101086.03;5013087;28;21004;-72
2022/02/24 05:13:27;;;;;;;0.40;0.30;;;;;;;3.60;86.08;101088.16;5012123;28;20456;-72
2022/02/24 05:15:54;;;;;;;0.40;0.30;;;;;;;3.60;86.89;101088.16;5013407;28;20440;-72
2022/02/24 05:18:21;;;;;;;0.40;0.30;;;;;;;3.62;87.51;101086.03;5012941;28;20506;-72
2022/02/24 05:20:47;;;;;;;0.40;0.30;;;;;;;3.62;86.30;101082.53;5013262;28;20480;-72
2022/02/24 05:23:14;;;;;;;0.40;0.30;;;;;;;3.65;86.57;101087.41;5013322;28;20464;-72
2022/02/24 05:25:41;;;;;;;0.40;0.30;;;;;;;3.67;86.40;101085.28;5012966;28;21057;-72
2022/02/24 05:28:09;;;;;;;0.40;0.30;;;;;;;3.65;86.16;101085.53;5013405;28;20450;-73
2022/02/24 05:30:37;;;;;;;0.40;0.30;;;;;;;3.60;85.57;101084.66;5012907;28;20487;-72
2022/02/24 05:33:05;;;;;;;0.40;0.30;;;;;;;3.62;85.33;101086.03;5013048;28;20483;-73
2022/02/24 05:35:31;;;;;;;0.40;0.30;;;;;;;3.57;85.80;101077.09;5013134;28;20439;-73
2022/02/24 05:37:58;;;;;;;0.40;0.30;;;;;;;3.65;86.29;101071.34;5013058;28;20451;-73
2022/02/24 05:40:24;;;;;;;0.40;0.30;;;;;;;3.70;87.14;101064.19;5013016;28;20444;-73
2022/02/24 05:42:51;;;;;;;0.40;0.30;;;;;;;3.80;87.02;101061.66;5014464;28;21008;-73
2022/02/24 05:45:17;;;;;;;0.40;0.20;;;;;;;3.87;86.71;101055.34;5013156;28;20471;-73
2022/02/24 05:47:45;;;;;;;0.40;0.30;;;;;;;3.95;86.52;101052.25;5013014;28;20972;-73
2022/02/24 05:50:16;;;;;;;0.40;0.30;;;;;;;4.02;85.63;101042.16;5013158;28;20440;-73
2022/02/24 05:52:42;;;;;;;0.40;0.30;;;;;;;4.05;85.66;101049.72;5013064;28;20830;-73
2022/02/24 05:55:09;;;;;;;0.40;0.30;;;;;;;4.11;85.33;101046.06;5012982;28;20452;-73
2022/02/24 05:57:35;;;;;;;0.40;0.30;;;;;;;4.09;86.08;101044.69;5012990;28;20470;-73
2022/02/24 06:00:03;;;;;;;0.40;0.30;;;;;;;4.16;84.69;101051.50;5013063;28;20862;-73
2022/02/24 06:02:29;;;;;;;0.40;0.30;;;;;;;4.19;84.84;101053.69;5012725;28;20487;-72
2022/02/24 06:04:57;;;;;;;0.40;0.30;;;;;;;4.24;84.41;101050.25;5012744;28;21039;-71
2022/02/24 06:07:23;;;;;;;0.40;0.30;;;;;;;4.24;84.44;101051.06;5012929;28;20456;-71
2022/02/24 06:09:50;;;;;;;0.40;0.30;;;;;;;4.20;84.03;101044.56;5012905;28;20444;-73
2022/02/24 06:12:16;;;;;;;0.40;0.30;;;;;;;4.11;83.90;101038.00;5012806;28;20435;-72
2022/02/24 06:14:42;;;;;;;0.40;0.30;;;;;;;4.22;83.32;101047.03;5012979;28;20440;-71
2022/02/24 06:17:09;;;;;;;0.40;0.30;;;;;;;4.27;84.10;101034.50;5012562;28;20830;-72
2022/02/24 06:19:35;;;;;;;0.40;0.30;;;;;;;4.30;85.06;101034.00;5012768;28;20440;-71
2022/02/24 06:22:03;;;;;;;0.40;0.30;;;;;;;4.37;84.70;101030.31;5012739;28;20480;-72
2022/02/24 06:24:29;;;;;;;0.40;0.30;;;;;;;4.43;83.63;101035.50;5012103;28;20886;-72
2022/02/24 06:26:56;;;;;;;0.40;0.30;;;;;;;4.48;82.38;101029.41;4996685;28;20449;-72
2022/02/24 06:29:22;;;;;;;0.40;0.30;;;;;;;4.53;82.41;101027.59;4996725;28;20467;-72
2022/02/24 06:31:49;;;;;;;0.40;0.30;;;;;;;4.58;82.35;101023.34;4996393;28;20846;-72
2022/02/24 06:34:15;;;;;;;0.40;0.30;;;;;;;4.62;82.09;101016.41;4996466;28;20460;-72
2022/02/24 06:36:42;;;;;;;0.40;0.30;;;;;;;4.64;81.97;101011.59;4996527;28;20467;-72
2022/02/24 06:39:09;;;;;;;0.40;0.30;;;;;;;4.65;81.62;101005.16;4996232;28;20448;-73
2022/02/24 06:41:36;;;;;;;0.40;0.20;;;;;;;4.65;81.76;101003.31;4996428;28;20484;-72
2022/02/24 06:44:03;;;;;;;0.40;0.30;;;;;;;4.64;82.28;100999.00;4996102;28;20842;-72
2022/02/24 06:46:29;;;;;;;0.40;0.30;;;;;;;4.73;82.07;100994.00;4996446;28;20456;-72
2022/02/24 06:48:56;;;;;;;0.40;0.30;;;;;;;4.78;82.06;100997.56;4996310;28;20475;-72
2022/02/24 06:51:22;;;;;;;0.40;0.30;;;;;;;4.83;81.72;100982.59;4996026;28;20503;-72
2022/02/24 06:53:49;;;;;;;0.40;0.20;;;;;;;4.91;81.02;100984.78;4996254;28;20465;-72
2022/02/24 06:56:16;;;;;;;0.40;0.30;;;;;;;4.95;79.94;101002.00;4996232;28;20453;-73
2022/02/24 06:58:43;;;;;;;0.40;0.30;;;;;;;5.01;80.66;100993.78;4996231;28;20480;-73
2022/02/24 07:01:09;;;;;;;0.40;0.30;;;;;;;5.05;79.77;101002.94;4995663;28;21006;-72
2022/02/24 07:03:36;;;;;;;0.40;0.30;;;;;;;5.05;80.33;101002.13;4995928;28;20476;-73
2022/02/24 07:06:02;;;;;;;0.40;0.30;;;;;;;5.09;80.91;100997.03;4995951;28;20518;-72
2022/02/24 07:08:29;;;;;;;0.40;0.30;;;;;;;5.14;80.81;100989.88;4996039;28;20548;-73
2022/02/24 07:10:56;;;;;;;0.40;0.30;;;;;;;5.12;80.17;100983.94;4995925;28;20455;-73
2022/02/24 07:13:24;;;;;;;0.40;0.30;;;;;;;5.20;80.18;100988.03;4995574;28;20461;-73
2022/02/24 07:15:51;;;;;;;0.40;0.23;;;;;;;5.24;80.06;100983.78;4995634;28;20974;-72
2022/02/24 07:18:17;;;;;;;0.40;0.30;;;;;;;5.27;80.20;100985.94;4995848;28;20453;-73
2022/02/24 07:20:44;;;;;;;0.40;0.20;;;;;;;5.27;80.35;100977.91;4995777;28;20462;-74
2022/02/24 07:23:11;;;;;;;0.40;0.30;;;;;;;5.35;80.57;100973.91;4995524;28;20489;-73
2022/02/24 07:25:38;;;;;;;0.40;0.30;;;;;;;5.42;80.18;100982.56;4995731;28;20441;-73
2022/02/24 07:28:05;;;;;;;0.40;0.20;;;;;;;5.42;80.31;100979.88;4995641;28;20441;-73
2022/02/24 07:30:32;;;;;;;0.40;0.20;;;;;;;5.47;79.56;100982.59;4995654;28;20448;-73
2022/02/24 07:32:59;;;;;;;0.40;0.30;;;;;;;5.50;77.79;100972.16;4995393;28;20461;-72
2022/02/24 07:35:25;;;;;;;2.00;1.90;;;;;;;5.54;77.75;100967.09;4995737;28;20508;-72
2022/02/24 07:37:52;;;;;;;0.40;0.20;;;;;;;5.55;78.73;100974.88;4994776;28;20449;-73
2022/02/24 07:40:18;;;;;;;0.40;0.30;;;;;;;5.59;78.74;100966.31;4995167;28;20942;-72
2022/02/24 07:42:45;;;;;;;0.40;0.20;;;;;;;5.64;78.74;100964.47;4995281;28;20501;-74
2022/02/24 07:45:11;;;;;;;0.40;0.30;;;;;;;5.71;78.26;100959.69;4995352;28;20449;-69
2022/02/24 07:47:39;;;;;;;0.40;0.30;;;;;;;5.80;77.84;100955.44;4995007;28;20448;-72
2022/02/24 07:50:13;;;;;;;0.40;0.30;;;;;;;5.87;78.24;100949.00;4995423;28;20460;-72
2022/02/24 07:52:40;;;;;;;0.40;0.30;;;;;;;5.82;77.15;100947.91;4995090;28;20519;-72
2022/02/24 07:55:07;;;;;;;0.40;0.30;;;;;;;5.78;77.57;100952.19;4994797;28;20935;-72
2022/02/24 07:57:33;;;;;;;0.40;0.30;;;;;;;5.90;76.92;100937.75;4995044;28;20536;-71
2022/02/24 08:00:00;;;;;;;0.40;0.30;;;;;;;6.00;76.84;100937.81;4995025;28;20449;-72
2022/02/24 08:02:26;;;;;;;0.40;0.30;;;;;;;6.02;76.73;100933.81;4994677;28;20874;-71
2022/02/24 08:04:54;;;;;;;0.40;0.30;;;;;;;6.10;77.21;100932.47;4994873;28;20453;-70
2022/02/24 08:07:20;;;;;;;0.40;0.30;;;;;;;6.18;75.68;100923.91;4994862;28;20452;-71
2022/02/24 08:09:46;;;;;;;0.40;0.30;;;;;;;6.25;76.76;100913.72;4994803;28;20500;-73
2022/02/24 08:14:57;;;;;;;0.40;0.30;;;;;;;6.36;76.41;100900.31;4994649;28;20481;-71
2022/02/24 08:17:23;;;;;;;0.40;0.20;;;;;;;6.44;76.22;100902.47;4994695;28;20450;-71
2022/02/24 08:19:50;;;;;;;0.40;0.30;;;;;;;6.52;75.56;100893.88;4994686;28;20499;-71
2022/02/24 08:22:18;;;;;;;0.40;0.30;;;;;;;6.51;76.96;100889.59;4994467;28;20527;-71
2022/02/24 08:24:44;;;;;;;0.40;0.30;;;;;;;6.62;76.27;100891.22;4994304;28;20938;-71
2022/02/24 08:27:10;;;;;;;0.40;0.27;;;;;;;6.67;75.85;100880.44;4994502;28;20441;-71
2022/02/24 08:29:37;;;;;;;0.93;0.93;;;;;;;6.77;74.28;100877.78;4994444;28;20452;-72
2022/02/24 08:32:04;;;;;;;1.67;1.50;;;;;;;6.83;73.48;100873.22;4994408;28;20472;-72
2022/02/24 08:34:30;;;;;;;0.40;0.20;;;;;;;6.88;74.54;100867.81;4994335;28;20469;-71
2022/02/24 08:36:57;;;;;;;0.40;0.23;;;;;;;6.91;73.37;100877.25;4994434;28;20452;-72
2022/02/24 08:39:25;;;;;;;0.40;0.30;;;;;;;6.90;72.87;100872.94;4994027;28;20871;-71
2022/02/24 08:41:51;;;;;;;0.40;0.30;;;;;;;6.88;72.67;100861.63;4994276;28;20481;-71
2022/02/24 08:44:19;;;;;;;0.40;0.30;;;;;;;6.85;74.65;100857.56;4994142;28;20480;-71
2022/02/24 08:46:46;;;;;;;0.40;0.30;;;;;;;6.81;75.27;100851.13;4994217;28;20498;-70
2022/02/24 08:49:13;;;;;;;0.40;0.30;;;;;;;6.87;73.86;100849.25;4993633;28;20444;-70
2022/02/24 08:51:39;;;;;;;0.40;0.30;;;;;;;6.85;74.28;100840.63;4993216;28;20987;-70
2022/02/24 08:54:06;;;;;;;0.50;0.47;;;;;;;6.93;73.68;100842.78;4993163;28;20994;-70
2022/02/24 08:56:33;;;;;;;0.40;0.30;;;;;;;6.99;73.03;100841.69;4993535;28;20453;-70
2022/02/24 08:59:00;;;;;;;0.40;0.30;;;;;;;6.99;73.22;100836.28;4993469;28;20449;-70
2022/02/24 09:01:26;;;;;;;0.40;0.30;;;;;;;6.99;72.43;100834.41;4993299;28;20463;-71
2022/02/24 09:03:53;;;;;;;0.40;0.20;;;;;;;7.06;73.44;100831.44;4993252;28;20476;-69
2022/02/24 09:06:19;;;;;;;0.40;0.30;;;;;;;7.10;73.75;100824.44;4993049;28;20938;-69
2022/02/24 09:08:46;;;;;;;0.40;0.30;;;;;;;7.17;74.67;100827.69;4993312;28;20460;-70
2022/02/24 09:11:12;;;;;;;0.40;0.30;;;;;;;7.20;72.91;100827.13;4993343;28;20445;-70
2022/02/24 09:13:41;;;;;;;0.40;0.20;;;;;;;7.34;72.50;100817.38;4993196;28;20540;-70
2022/02/24 09:16:08;;;;;;;0.40;0.30;;;;;;;7.43;72.65;100812.22;4993117;28;20452;-70
2022/02/24 09:18:34;;;;;;;0.40;0.30;;;;;;;7.48;72.53;100809.56;4993133;28;20537;-70
2022/02/24 09:21:01;;;;;;;0.40;0.23;;;;;;;7.58;71.65;100808.69;4992911;28;20810;-70
2022/02/24 09:23:27;;;;;;;0.40;0.30;;;;;;;7.66;72.51;100813.53;4993052;28;20535;-70
2022/02/24 09:25:54;;;;;;;0.40;0.30;;;;;;;7.72;71.24;100812.41;4993166;28;20448;-71
2022/02/24 09:28:21;;;;;;;0.40;0.30;;;;;;;7.80;70.51;100801.06;4993361;28;20449;-71
2022/02/24 09:30:48;;;;;;;0.40;0.30;;;;;;;7.84;70.51;100804.81;4993416;28;20539;-71
2022/02/24 09:33:15;;;;;;;0.40;0.30;;;;;;;7.87;70.06;100802.63;4993698;28;20460;-68
2022/02/24 09:35:41;;;;;;;0.40;0.30;;;;;;;7.92;69.99;100798.00;4993422;28;20503;-69
2022/02/24 09:38:08;;;;;;;0.40;0.30;;;;;;;7.98;70.35;100788.81;4993684;28;20495;-69
2022/02/24 09:40:34;;;;;;;0.40;0.30;;;;;;;8.05;70.29;100780.41;4993692;28;20507;-69
2022/02/24 09:43:03;;;;;;;0.40;0.30;;;;;;;8.11;70.40;100776.63;4993477;28;20496;-69
2022/02/24 09:45:29;;;;;;;0.40;0.30;;;;;;;8.19;70.50;100772.50;4993643;28;20499;-69
2022/02/24 09:47:57;;;;;;;0.40;0.30;;;;;;;8.31;70.64;100762.97;4993630;28;20444;-69
2022/02/24 09:50:26;;;;;;;0.40;0.30;;;;;;;8.43;69.45;100759.16;4993309;28;20445;-69
2022/02/24 09:52:52;;;;;;;0.40;0.30;;;;;;;8.50;69.37;100757.75;4996171;28;21029;-69
2022/02/24 09:55:19;;;;;;;0.40;0.30;;;;;;;8.53;68.27;100756.34;5012993;28;20498;-69
2022/02/24 09:57:45;;;;;;;0.40;0.30;;;;;;;8.63;68.53;100755.47;5013117;28;20455;-72
2022/02/24 10:00:13;;;;;;;0.40;0.20;;;;;;;8.73;68.30;100742.69;5014077;28;20439;-70
2022/02/24 10:02:39;;;;;;;0.40;0.30;;;;;;;8.80;67.48;100742.34;5016637;28;20515;-69
2022/02/24 10:05:09;;;;;;;0.40;0.30;;;;;;;8.93;68.28;100738.16;5016548;28;20470;-71
2022/02/24 10:07:38;;;;;;;0.40;0.23;;;;;;;8.97;67.35;100734.59;5016972;28;20482;-72
2022/02/24 10:10:24;;;;;;;0.40;0.30;;;;;;;9.08;67.94;100724.50;5016686;28;20471;-71
2022/02/24 10:13:02;;;;;;;0.40;0.30;;;;;;;9.08;66.67;100717.19;5016565;28;20459;-72
2022/02/24 10:15:29;;;;;;;0.40;0.30;;;;;;;9.02;68.27;100712.94;5016598;28;20440;-71
2022/02/24 10:18:06;;;;;;;0.40;0.30;;;;;;;9.08;67.18;100716.41;5016642;28;20447;-71
2022/02/24 10:20:39;;;;;;;0.40;0.30;;;;;;;9.17;67.86;100706.56;5016537;28;20443;-71
2022/02/24 10:23:05;;;;;;;0.40;0.30;;;;;;;9.10;66.51;100708.78;5016255;28;20488;-72
2022/02/24 10:25:38;;;;;;;0.40;0.30;;;;;;;9.14;66.78;100707.13;5016427;28;20448;-71
2022/02/24 10:28:05;;;;;;;0.40;0.30;;;;;;;9.15;66.78;100703.31;5016417;28;20627;-72
2022/02/24 10:30:34;;;;;;;0.50;0.50;;;;;;;9.14;67.28;100695.53;5016395;28;20483;-71
2022/02/24 10:33:01;;;;;;;0.40;0.30;;;;;;;9.18;66.64;100697.34;5016489;28;20460;-70
2022/02/24 10:35:29;;;;;;;0.40;0.30;;;;;;;9.15;67.21;100686.31;5016527;28;20579;-71
2022/02/24 10:38:00;;;;;;;0.40;0.30;;;;;;;9.25;66.85;100684.31;5016132;28;20439;-72
2022/02/24 10:40:28;;;;;;;0.40;0.30;;;;;;;9.35;67.08;100676.06;5016136;28;20463;-71
2022/02/24 10:42:55;;;;;;;0.40;0.30;;;;;;;9.42;67.69;100664.06;5015924;28;20876;-71
2022/02/24 10:45:25;;;;;;;0.40;0.30;;;;;;;9.50;67.92;100660.72;5016051;28;20444;-71
2022/02/24 10:47:57;;;;;;;0.50;0.40;;;;;;;9.57;67.10;100664.69;5016094;28;20795;-71
2022/02/24 10:50:45;;;;;;;0.40;0.30;;;;;;;9.72;65.71;100658.22;5016011;28;20950;-71
2022/02/24 10:53:13;;;;;;;0.40;0.30;;;;;;;9.80;66.53;100659.47;5015833;28;20467;-71
2022/02/24 10:55:53;;;;;;;0.40;0.30;;;;;;;9.86;66.56;100650.97;5015872;28;20444;-71
2022/02/24 10:58:20;;;;;;;0.40;0.30;;;;;;;9.83;67.22;100643.47;5015876;28;20424;-71
2022/02/24 11:00:46;;;;;;;0.40;0.30;;;;;;;9.94;66.09;100656.84;5015711;28;20464;-72
2022/02/24 11:03:13;;;;;;;0.40;0.30;;;;;;;9.91;65.42;100641.19;5015318;28;21020;-71
2022/02/24 11:05:41;;;;;;;0.40;0.30;;;;;;;9.89;66.57;100640.69;5015694;28;20444;-71
2022/02/24 11:08:09;;;;;;;0.40;0.30;;;;;;;9.85;66.25;100632.34;5015663;28;20440;-71
2022/02/24 11:10:38;;;;;;;0.40;0.30;;;;;;;9.80;67.24;100625.13;5015467;28;20432;-71
2022/02/24 11:13:05;;;;;;;0.40;0.30;;;;;;;9.73;66.47;100631.97;5014499;28;20471;-72
2022/02/24 11:15:32;;;;;;;0.40;0.30;;;;;;;9.69;66.30;100622.84;5015469;28;20443;-72
2022/02/24 11:18:00;;;;;;;0.40;0.30;;;;;;;9.64;67.00;100618.31;5015466;28;20455;-72
2022/02/24 11:20:28;;;;;;;0.40;0.30;;;;;;;9.60;66.67;100609.19;5015452;28;20455;-72
2022/02/24 11:22:55;;;;;;;0.40;0.30;;;;;;;9.54;66.90;100600.34;5015216;28;20957;-72
2022/02/24 11:25:25;;;;;;;0.40;0.30;;;;;;;9.56;67.56;100587.38;5015112;28;20802;-72
2022/02/24 11:27:55;;;;;;;0.40;0.30;;;;;;;9.63;66.98;100588.88;5015569;28;20814;-72
2022/02/24 11:30:28;;;;;;;0.40;0.30;;;;;;;9.68;67.96;100591.50;5015259;28;20498;-72
2022/02/24 11:32:55;;;;;;;1.03;1.03;;;;;;;9.66;67.86;100589.09;5015118;28;20563;-72
2022/02/24 11:35:22;;;;;;;0.40;0.30;;;;;;;9.72;67.74;100577.09;5015150;28;20448;-72
2022/02/24 11:37:50;;;;;;;0.40;0.30;;;;;;;9.71;68.42;100577.41;5015111;28;20459;-71